Time;durP1;ratioP1;P1;durP2;ratioP2;P2;SDS_P1;SDS_P2;PMS_P1;PMS_P2;Temp;Humidity;BMP_temperature;BMP_pressure;BME280_temperature;BME280_humidity;BME280_pressure;Samples;Min_cycle;Max_cycle;Signal;HPM_P1;HPM_P2
2021/12/08 00:01:08;;;;;;;5.07;0.65;;;;;;;3.89;91.11;96619.16;4898416;29;20480;-87
2021/12/08 00:03:38;;;;;;;4.43;0.80;;;;;;;3.89;91.04;96617.16;4925861;29;20381;-87
2021/12/08 00:06:06;;;;;;;4.32;1.63;;;;;;;3.89;91.35;96614.44;4898234;29;20861;-87
2021/12/08 00:08:34;;;;;;;5.38;0.60;;;;;;;3.89;90.95;96619.91;4909813;29;20087;-88
2021/12/08 00:13:35;;;;;;;8.32;1.67;;;;;;;3.88;90.97;96632.03;4911902;29;20040;-88
2021/12/08 00:16:08;;;;;;;7.13;1.05;;;;;;;3.86;91.06;96615.25;4898545;29;20135;-89
2021/12/08 00:18:36;;;;;;;2.65;1.17;;;;;;;3.85;91.15;96608.22;4910786;29;20043;-88
2021/12/08 00:21:08;;;;;;;4.72;1.63;;;;;;;3.86;90.83;96609.78;4879188;29;20464;-89
2021/12/08 00:23:35;;;;;;;4.45;1.40;;;;;;;3.86;90.87;96639.88;4906284;29;20044;-88
2021/12/08 00:26:03;;;;;;;4.28;1.00;;;;;;;3.88;90.98;96625.78;4898691;29;20071;-89
2021/12/08 00:28:30;;;;;;;9.05;1.85;;;;;;;3.87;90.86;96638.69;4910571;29;20435;-89
2021/12/08 00:31:00;;;;;;;3.15;0.90;;;;;;;3.88;90.95;96636.72;4899363;29;20040;-89
2021/12/08 00:33:29;;;;;;;3.05;0.90;;;;;;;3.88;90.62;96629.31;4914498;29;20099;-89
2021/12/08 00:36:00;;;;;;;4.63;0.93;;;;;;;3.86;90.80;96623.47;4879707;29;20048;-89
2021/12/08 00:38:27;;;;;;;2.38;0.55;;;;;;;3.83;90.46;96621.53;4909223;29;20119;-88
2021/12/08 00:40:54;;;;;;;6.38;1.27;;;;;;;3.84;90.27;96634.00;4916665;29;20036;-89
2021/12/08 00:43:22;;;;;;;5.07;1.08;;;;;;;3.85;90.58;96619.16;4898760;29;20043;-88
2021/12/08 00:45:50;;;;;;;7.15;1.40;;;;;;;3.84;90.45;96631.28;4923678;29;20062;-88
2021/12/08 00:48:18;;;;;;;7.20;2.00;;;;;;;3.82;90.48;96643.78;4898945;29;20467;-89
2021/12/08 00:50:46;;;;;;;5.70;1.15;;;;;;;3.82;90.31;96647.31;4882314;29;20048;-89
2021/12/08 00:53:13;;;;;;;3.38;0.95;;;;;;;3.83;90.62;96632.47;4921765;29;20135;-89
2021/12/08 00:55:40;;;;;;;5.20;1.20;;;;;;;3.81;90.53;96621.16;4904756;29;20056;-87
2021/12/08 00:58:07;;;;;;;4.57;0.95;;;;;;;3.81;90.48;96623.91;4897287;29;20056;-87
2021/12/08 01:00:42;;;;;;;2.20;0.98;;;;;;;3.79;90.29;96628.97;4893224;29;20097;-87
2021/12/08 01:03:10;;;;;;;7.68;1.35;;;;;;;3.81;90.31;96650.47;4911369;29;20050;-88
2021/12/08 01:05:43;;;;;;;2.38;1.58;;;;;;;3.77;89.92;96647.75;4888807;29;20048;-87
2021/12/08 01:08:10;;;;;;;4.38;0.82;;;;;;;3.78;90.45;96649.31;4897661;29;20044;-86
2021/12/08 01:10:39;;;;;;;4.47;0.73;;;;;;;3.76;90.24;96627.03;4896242;29;20047;-85
2021/12/08 01:13:08;;;;;;;6.90;0.70;;;;;;;3.74;90.54;96643.06;4910407;29;20435;-84
2021/12/08 01:15:39;;;;;;;13.35;1.50;;;;;;;3.70;90.35;96642.31;4883375;29;20048;-85
2021/12/08 01:18:06;;;;;;;0.83;0.33;;;;;;;3.71;90.40;96640.38;4882444;29;20056;-83
2021/12/08 01:20:33;;;;;;;1.33;0.40;;;;;;;3.67;90.43;96657.56;4891081;29;20074;-84
2021/12/08 01:23:00;;;;;;;1.48;0.20;;;;;;;3.64;90.47;96635.72;4893365;29;20130;-84
2021/12/08 01:25:27;;;;;;;3.30;0.77;;;;;;;3.65;90.39;96648.22;4892983;29;20040;-85
2021/12/08 01:27:54;;;;;;;2.88;0.60;;;;;;;3.65;90.35;96654.44;4912708;29;20541;-84
2021/12/08 01:30:21;;;;;;;2.53;0.63;;;;;;;3.66;90.88;96655.22;4889117;29;20469;-85
2021/12/08 01:32:48;;;;;;;1.42;0.50;;;;;;;3.64;90.50;96663.06;4896453;29;20115;-84
2021/12/08 01:35:15;;;;;;;2.08;0.40;;;;;;;3.63;90.48;96661.50;4912749;29;20955;-83
2021/12/08 01:37:42;;;;;;;2.17;0.90;;;;;;;3.64;90.94;96674.00;4895967;29;20036;-84
2021/12/08 01:40:12;;;;;;;2.75;0.55;;;;;;;3.62;90.63;96676.34;4894659;29;20058;-83
2021/12/08 01:42:46;;;;;;;0.65;0.45;;;;;;;3.64;90.60;96690.41;4890968;29;20124;-83
2021/12/08 01:48:11;;;;;;;0.65;0.30;;;;;;;3.57;90.39;96690.44;4911912;29;20036;-83
2021/12/08 01:50:40;;;;;;;1.45;0.40;;;;;;;3.52;90.41;96679.91;4895331;29;20793;-82
2021/12/08 01:53:08;;;;;;;2.03;0.52;;;;;;;3.51;90.44;96686.56;4923953;29;20068;-82
2021/12/08 01:55:37;;;;;;;1.75;0.20;;;;;;;3.51;90.67;96727.56;4893031;29;20040;-83
2021/12/08 01:58:04;;;;;;;3.13;0.47;;;;;;;3.51;90.62;96719.38;4911380;29;20063;-82
2021/12/08 02:00:36;;;;;;;4.18;0.93;;;;;;;3.50;90.65;96717.78;4909120;29;20123;-83
2021/12/08 02:03:03;;;;;;;6.75;0.50;;;;;;;3.47;90.50;96718.59;4899948;29;20056;-83
2021/12/08 02:05:30;;;;;;;2.97;0.57;;;;;;;3.48;91.07;96715.47;4908952;29;20377;-83
2021/12/08 02:07:57;;;;;;;2.50;0.52;;;;;;;3.47;90.81;96740.47;4909129;29;20044;-83
2021/12/08 02:10:25;;;;;;;4.50;0.50;;;;;;;3.46;90.92;96741.66;4909556;29;20529;-83
2021/12/08 02:12:53;;;;;;;0.77;0.35;;;;;;;3.42;90.86;96766.25;4891296;29;20392;-82
2021/12/08 02:15:20;;;;;;;2.22;0.30;;;;;;;3.39;91.00;96793.63;4912006;29;20040;-82
2021/12/08 02:17:51;;;;;;;2.92;0.63;;;;;;;3.30;90.66;96791.28;4909640;29;20052;-83
2021/12/08 02:20:20;;;;;;;0.20;0.20;;;;;;;3.27;91.11;96802.22;4919683;29;20130;-83
2021/12/08 02:22:47;;;;;;;0.63;0.13;;;;;;;3.21;90.61;96798.31;4908828;29;20115;-82
2021/12/08 02:25:19;;;;;;;0.77;0.10;;;;;;;3.15;90.69;96806.13;4908466;29;20567;-82
2021/12/08 02:27:46;;;;;;;0.10;0.10;;;;;;;3.10;90.82;96822.16;4899472;29;20044;-82
2021/12/08 02:30:32;;;;;;;2.78;0.30;;;;;;;3.07;91.06;96816.28;4910715;29;20373;-83
2021/12/08 02:47:17;;;;;;;1.30;0.68;;;;;;;2.95;90.92;96863.13;4909703;29;20088;-83
2021/12/08 02:49:44;;;;;;;2.67;0.13;;;;;;;2.97;91.23;96868.19;4911375;29;20032;-83
2021/12/08 02:52:13;;;;;;;0.20;0.10;;;;;;;2.95;91.33;96882.25;4904119;29;20055;-82
2021/12/08 02:54:47;;;;;;;2.05;0.15;;;;;;;2.92;91.33;96907.63;4906726;29;21000;-82
2021/12/08 02:57:16;;;;;;;0.55;0.10;;;;;;;2.93;91.37;96897.47;4894632;29;20068;-82
2021/12/08 02:59:45;;;;;;;1.48;0.20;;;;;;;2.90;91.05;96904.50;4910008;29;20075;-82
2021/12/08 03:02:12;;;;;;;1.05;0.10;;;;;;;2.88;91.50;96920.50;4894348;29;20119;-81
2021/12/08 03:04:39;;;;;;;0.20;0.10;;;;;;;2.81;91.44;96933.34;4920408;29;20487;-82
2021/12/08 03:07:06;;;;;;;1.42;0.17;;;;;;;2.73;91.15;96940.75;4891874;29;20056;-82
2021/12/08 03:09:34;;;;;;;0.30;0.00;;;;;;;2.69;91.56;96937.22;4894685;29;20481;-82
2021/12/08 03:12:01;;;;;;;1.15;0.10;;;;;;;2.67;91.07;96944.25;4910286;29;20048;-81
2021/12/08 03:14:30;;;;;;;2.25;0.73;;;;;;;2.63;91.33;96922.38;4878915;29;20408;-82
2021/12/08 03:17:02;;;;;;;1.60;0.10;;;;;;;2.64;91.66;96967.66;4921142;29;20055;-82
2021/12/08 03:19:30;;;;;;;1.90;0.32;;;;;;;2.68;92.10;96962.97;4886139;29;20100;-82
2021/12/08 03:21:58;;;;;;;0.40;0.30;;;;;;;2.70;91.81;96944.25;4913684;29;20095;-81
2021/12/08 03:24:30;;;;;;;0.40;0.10;;;;;;;2.75;92.08;96957.53;4897138;29;20062;-82
2021/12/08 03:29:44;;;;;;;1.33;0.13;;;;;;;2.76;91.95;96942.72;4897413;29;20139;-82
2021/12/08 03:32:15;;;;;;;1.60;0.13;;;;;;;2.81;92.30;96955.19;4924666;29;20035;-82
2021/12/08 03:34:51;;;;;;;0.60;0.13;;;;;;;2.75;92.13;96973.94;4897356;29;20048;-82
2021/12/08 03:37:23;;;;;;;3.60;0.75;;;;;;;2.75;91.96;96984.06;4880689;29;20068;-81
2021/12/08 03:39:51;;;;;;;1.00;0.10;;;;;;;2.74;91.86;97002.41;4895918;29;20806;-82
2021/12/08 03:42:20;;;;;;;0.00;0.00;;;;;;;2.70;91.98;97000.84;4912977;29;20059;-81
2021/12/08 03:44:49;;;;;;;3.38;0.88;;;;;;;2.62;92.10;97008.19;4894708;29;20051;-81
2021/12/08 03:47:18;;;;;;;4.70;0.30;;;;;;;2.58;92.34;97034.72;4911728;29;20449;-81
2021/12/08 03:49:47;;;;;;;1.67;0.30;;;;;;;2.61;93.02;97033.16;4911402;29;20148;-81
2021/12/08 03:52:14;;;;;;;1.45;0.30;;;;;;;2.64;92.76;97043.31;4910306;29;20519;-81
2021/12/08 03:54:41;;;;;;;2.30;0.22;;;;;;;2.66;93.17;97054.63;4891641;29;20056;-82
2021/12/08 03:57:08;;;;;;;0.45;0.13;;;;;;;2.71;93.24;97071.44;4921497;29;20155;-81
2021/12/08 03:59:35;;;;;;;0.35;0.10;;;;;;;2.71;93.55;97087.03;4891641;29;20135;-82
2021/12/08 04:02:03;;;;;;;0.10;0.10;;;;;;;2.74;93.94;97089.78;4912107;29;20127;-81
2021/12/08 04:04:40;;;;;;;1.75;0.17;;;;;;;2.76;93.23;97097.59;4912515;29;20044;-81
2021/12/08 04:07:08;;;;;;;1.02;0.45;;;;;;;2.80;93.78;97095.69;4913365;29;20048;-80
2021/12/08 04:09:45;;;;;;;2.03;0.32;;;;;;;2.81;93.52;97098.00;4923410;29;20457;-81
2021/12/08 04:12:15;;;;;;;1.27;0.10;;;;;;;2.81;93.59;97136.25;4882432;29;20225;-80
2021/12/08 04:14:50;;;;;;;1.45;0.77;;;;;;;2.76;93.31;97131.16;4894636;29;20111;-81
2021/12/08 04:17:30;;;;;;;1.45;0.55;;;;;;;2.77;93.21;97138.19;4916056;29;20048;-81
2021/12/08 04:20:02;;;;;;;0.82;0.20;;;;;;;2.77;93.59;97157.31;4910895;29;20058;-82
2021/12/08 04:22:34;;;;;;;1.80;0.30;;;;;;;2.75;93.57;97146.00;4911177;29;20107;-81
2021/12/08 04:25:08;;;;;;;0.77;0.20;;;;;;;2.79;93.84;97138.59;4910308;29;20044;-81
2021/12/08 04:27:37;;;;;;;2.65;0.30;;;;;;;2.80;94.07;97142.91;4900884;29;20139;-81
2021/12/08 04:30:08;;;;;;;2.22;0.55;;;;;;;2.83;93.91;97150.31;4896628;29;20062;-81
2021/12/08 04:32:35;;;;;;;0.10;0.10;;;;;;;2.88;94.37;97151.91;4896434;29;20123;-82
2021/12/08 04:35:09;;;;;;;1.38;1.05;;;;;;;2.95;94.41;97179.25;4891871;29;20055;-81
2021/12/08 04:37:44;;;;;;;1.58;0.38;;;;;;;2.98;93.90;97182.03;4910128;29;20032;-82
2021/12/08 04:40:26;;;;;;;2.05;0.73;;;;;;;3.05;93.91;97168.41;4905521;29;20043;-82
2021/12/08 04:43:21;;;;;;;3.47;0.45;;;;;;;3.10;93.82;97196.53;4895275;29;20048;-81
2021/12/08 04:46:17;;;;;;;1.38;0.20;;;;;;;3.15;93.97;97218.03;4894265;29;20051;-82
2021/12/08 04:49:03;;;;;;;1.38;0.60;;;;;;;3.18;93.86;97215.31;4910023;29;20055;-81
2021/12/08 05:06:17;;;;;;;2.40;0.77;;;;;;;3.42;93.56;97279.47;4863418;29;20136;-82
2021/12/08 05:08:47;;;;;;;4.78;0.85;;;;;;;3.46;93.70;97285.75;4900303;29;20041;-82
2021/12/08 05:11:27;;;;;;;6.13;0.85;;;;;;;3.46;93.85;97285.75;4910113;29;20064;-83
2021/12/08 05:14:01;;;;;;;5.82;1.77;;;;;;;3.49;93.72;97302.19;4887629;29;20079;-83
2021/12/08 05:16:31;;;;;;;3.22;1.67;;;;;;;3.48;93.68;97306.09;4910786;29;20119;-82
2021/12/08 05:19:02;;;;;;;4.68;1.35;;;;;;;3.47;93.68;97328.31;4910337;29;20136;-82
2021/12/08 05:21:29;;;;;;;2.30;0.90;;;;;;;3.49;93.50;97315.09;4911107;29;20047;-83
2021/12/08 05:24:05;;;;;;;6.88;1.48;;;;;;;3.49;93.71;97323.28;4922619;29;20140;-82
2021/12/08 05:26:42;;;;;;;5.55;1.35;;;;;;;3.48;93.59;97329.91;4894290;29;20044;-82
2021/12/08 05:29:32;;;;;;;7.28;1.70;;;;;;;3.50;93.84;97347.50;4911993;29;20560;-83
2021/12/08 05:32:01;;;;;;;5.95;1.27;;;;;;;3.52;94.07;97366.28;4910932;29;20678;-83
2021/12/08 05:34:28;;;;;;;10.27;2.78;;;;;;;3.53;93.76;97381.50;4910664;29;20392;-82
2021/12/08 05:36:56;;;;;;;4.72;0.80;;;;;;;3.55;93.68;97395.59;4879256;29;20040;-83
2021/12/08 05:39:26;;;;;;;7.10;1.63;;;;;;;3.57;93.34;97376.88;4910697;29;20044;-83
2021/12/08 05:41:57;;;;;;;6.75;1.58;;;;;;;3.60;93.67;97408.94;4900449;29;20135;-83
2021/12/08 05:44:24;;;;;;;5.55;1.70;;;;;;;3.61;93.73;97394.84;4896159;29;20044;-83
2021/12/08 05:46:57;;;;;;;7.97;1.20;;;;;;;3.59;93.70;97394.47;4909555;29;20095;-84
2021/12/08 05:49:25;;;;;;;17.58;1.80;;;;;;;3.63;93.41;97410.88;4911114;29;20043;-84
2021/12/08 05:51:53;;;;;;;5.75;1.08;;;;;;;3.62;93.68;97425.72;4907248;29;20067;-83
2021/12/08 05:54:30;;;;;;;6.45;1.70;;;;;;;3.59;93.39;97427.28;4894866;29;20143;-83
2021/12/08 05:57:00;;;;;;;9.43;1.88;;;;;;;3.53;92.87;97444.41;4907744;29;20059;-84
2021/12/08 05:59:27;;;;;;;1.92;1.02;;;;;;;3.46;93.05;97452.56;4880887;29;20140;-84
2021/12/08 06:02:04;;;;;;;7.65;1.40;;;;;;;3.43;93.10;97458.78;4894511;29;20040;-84
2021/12/08 06:04:31;;;;;;;2.50;0.60;;;;;;;3.44;93.31;97446.69;4907246;29;20044;-84
2021/12/08 06:06:59;;;;;;;1.02;0.60;;;;;;;3.42;93.16;97476.34;4893926;29;20041;-84
2021/12/08 06:09:28;;;;;;;5.03;0.98;;;;;;;3.42;93.07;97481.81;4908133;29;20048;-84
2021/12/08 06:11:55;;;;;;;7.40;2.25;;;;;;;3.44;93.19;97480.28;4908195;29;20712;-84
2021/12/08 06:14:31;;;;;;;2.13;0.82;;;;;;;3.45;93.23;97502.94;4892432;29;20134;-84
2021/12/08 06:17:06;;;;;;;6.75;1.60;;;;;;;3.51;93.35;97487.75;4881472;29;20139;-85
2021/12/08 06:19:36;;;;;;;10.32;1.10;;;;;;;3.55;93.27;97497.56;4893484;29;20092;-85
2021/12/08 06:22:06;;;;;;;10.02;0.98;;;;;;;3.58;93.18;97502.28;4885392;29;20099;-85
2021/12/08 06:24:33;;;;;;;5.30;1.02;;;;;;;3.61;93.34;97515.22;4894451;29;20048;-85
2021/12/08 06:26:59;;;;;;;4.55;1.10;;;;;;;3.63;93.33;97521.06;4916830;29;20492;-85
2021/12/08 06:29:27;;;;;;;6.95;0.88;;;;;;;3.64;92.64;97535.53;4907894;29;20135;-85
2021/12/08 06:31:56;;;;;;;7.30;1.23;;;;;;;3.66;92.46;97520.31;4898178;29;20048;-85
2021/12/08 06:34:24;;;;;;;7.32;1.40;;;;;;;3.66;92.79;97542.22;4894234;29;20062;-84
2021/12/08 06:37:12;;;;;;;7.43;0.93;;;;;;;3.66;92.64;97546.88;4911219;29;20107;-85
2021/12/08 06:39:46;;;;;;;6.63;1.05;;;;;;;3.68;92.25;97569.19;4909350;29;20127;-85
2021/12/08 06:42:17;;;;;;;3.67;1.33;;;;;;;3.69;92.09;97584.44;4905232;29;20046;-84
2021/12/08 06:44:47;;;;;;;3.05;0.60;;;;;;;3.73;91.76;97579.00;4910595;29;20050;-85
2021/12/08 06:47:24;;;;;;;4.63;0.82;;;;;;;3.75;91.74;97593.88;4913065;29;20115;-85
2021/12/08 06:49:53;;;;;;;4.82;0.75;;;;;;;3.74;91.45;97603.25;4911705;29;20480;-85
2021/12/08 06:52:25;;;;;;;5.90;0.85;;;;;;;3.74;91.44;97603.25;4896402;29;20040;-84
2021/12/08 06:54:57;;;;;;;2.72;0.88;;;;;;;3.75;91.35;97614.97;4894920;29;20063;-84
2021/12/08 06:57:30;;;;;;;2.95;1.20;;;;;;;3.75;91.23;97604.03;4898890;29;20043;-84
2021/12/08 07:00:02;;;;;;;3.90;1.17;;;;;;;3.76;91.44;97625.53;4897042;29;20063;-85
2021/12/08 07:02:53;;;;;;;7.60;1.25;;;;;;;3.76;91.10;97644.69;4907493;29;20134;-84
2021/12/08 07:08:03;;;;;;;5.20;1.48;;;;;;;3.69;91.07;97639.16;4912957;29;20127;-83
2021/12/08 07:10:35;;;;;;;10.05;1.25;;;;;;;3.68;91.48;97670.41;4909963;29;20048;-82
2021/12/08 07:13:12;;;;;;;3.85;1.50;;;;;;;3.63;91.56;97662.53;4895659;29;20047;-83
2021/12/08 07:15:47;;;;;;;4.97;1.58;;;;;;;3.60;91.62;97664.06;4923288;29;20062;-83
2021/12/08 07:18:22;;;;;;;6.80;1.48;;;;;;;3.56;91.41;97678.88;4894607;29;20676;-83
2021/12/08 07:21:00;;;;;;;7.47;1.40;;;;;;;3.57;91.84;97683.19;4896387;29;20044;-83
2021/12/08 07:23:50;;;;;;;5.70;0.93;;;;;;;3.53;91.92;97693.28;4894406;29;20067;-83
2021/12/08 07:26:22;;;;;;;7.55;1.65;;;;;;;3.51;91.87;97690.16;4911459;29;20135;-83
2021/12/08 07:28:50;;;;;;;5.80;0.95;;;;;;;3.49;92.07;97697.94;4899566;29;20385;-84
2021/12/08 07:31:20;;;;;;;6.50;1.02;;;;;;;3.53;91.53;97693.28;4919837;29;20126;-84
2021/12/08 07:33:48;;;;;;;4.88;0.95;;;;;;;3.56;91.68;97717.16;4913655;29;20044;-84
2021/12/08 07:36:20;;;;;;;5.65;1.40;;;;;;;3.57;91.36;97719.50;4883073;29;20064;-84
2021/12/08 07:38:55;;;;;;;5.15;0.85;;;;;;;3.61;91.53;97723.09;4905656;29;20495;-85
2021/12/08 07:41:45;;;;;;;9.52;1.25;;;;;;;3.65;91.35;97734.09;4888067;29;20052;-84
2021/12/08 07:44:14;;;;;;;9.25;2.67;;;;;;;3.64;91.53;97746.97;4886675;29;20135;-86
2021/12/08 07:46:48;;;;;;;7.88;1.23;;;;;;;3.66;91.36;97743.84;4912312;29;20052;-83
2021/12/08 07:49:20;;;;;;;8.35;1.77;;;;;;;3.63;91.49;97761.00;4895944;29;20052;-83
2021/12/08 07:51:49;;;;;;;6.15;1.92;;;;;;;3.59;91.31;97757.44;4910891;29;20040;-85
2021/12/08 07:54:18;;;;;;;7.35;2.67;;;;;;;3.56;91.29;97766.41;4897444;29;20381;-86
2021/12/08 07:56:48;;;;;;;7.85;1.25;;;;;;;3.56;91.30;97771.88;4912445;29;20083;-86
2021/12/08 07:59:18;;;;;;;7.35;1.23;;;;;;;3.52;91.15;97782.75;4905763;29;20130;-87
2021/12/08 08:01:48;;;;;;;7.53;1.10;;;;;;;3.51;91.13;97767.50;4909132;29;20040;-87
2021/12/08 08:04:19;;;;;;;6.55;2.35;;;;;;;3.51;91.14;97796.81;4908895;29;20630;-86
2021/12/08 08:06:49;;;;;;;13.15;1.77;;;;;;;3.48;90.83;97797.53;4911930;29;20052;-87
2021/12/08 08:09:25;;;;;;;5.68;1.27;;;;;;;3.44;90.96;97786.53;4904470;29;20108;-86
2021/12/08 08:11:57;;;;;;;9.80;1.23;;;;;;;3.45;90.71;97796.34;4912236;29;20123;-86
2021/12/08 08:14:38;;;;;;;8.88;1.77;;;;;;;3.45;90.89;97820.16;4904565;29;20487;-88
2021/12/08 08:17:13;;;;;;;3.35;1.20;;;;;;;3.46;90.75;97813.53;4902332;29;20044;-87
2021/12/08 08:19:45;;;;;;;4.75;1.65;;;;;;;3.47;90.96;97845.19;4911377;29;20071;-85
2021/12/08 08:22:17;;;;;;;7.28;1.25;;;;;;;3.49;91.18;97848.34;4896259;29;20128;-87
2021/12/08 08:24:44;;;;;;;9.38;1.75;;;;;;;3.50;90.93;97853.44;4896383;29;20044;-88
2021/12/08 08:27:14;;;;;;;7.07;1.25;;;;;;;3.50;90.82;97847.19;4903963;29;20083;-88
2021/12/08 08:29:42;;;;;;;8.30;1.48;;;;;;;3.54;90.82;97861.72;4912412;29;20040;-87
2021/12/08 08:32:26;;;;;;;5.55;1.25;;;;;;;3.55;90.29;97879.69;4913932;29;20055;-88
2021/12/08 08:35:24;;;;;;;5.45;1.10;;;;;;;3.59;90.31;97881.34;4906715;29;20048;-87
2021/12/08 08:37:52;;;;;;;2.05;1.58;;;;;;;3.63;90.43;97873.94;4893186;29;20047;-88
2021/12/08 08:40:50;;;;;;;7.95;1.35;;;;;;;3.63;89.80;97881.38;4878433;29;20048;-87
2021/12/08 08:43:19;;;;;;;8.45;0.95;;;;;;;3.66;90.25;97884.16;4909777;29;20060;-89
2021/12/08 08:46:18;;;;;;;5.43;1.95;;;;;;;3.65;90.38;97885.31;4898195;29;20123;-89
2021/12/08 08:49:05;;;;;;;4.80;1.40;;;;;;;3.63;90.19;97893.09;4915437;29;20071;-88
2021/12/08 08:51:41;;;;;;;6.22;1.65;;;;;;;3.63;90.51;97905.97;4896628;29;20039;-92
2021/12/08 08:54:13;;;;;;;10.57;1.48;;;;;;;3.62;90.49;97923.56;4911975;29;20551;-89
2021/12/08 08:56:48;;;;;;;12.48;1.30;;;;;;;3.61;90.77;97905.56;4894602;29;20051;-88
2021/12/08 08:59:21;;;;;;;8.00;1.30;;;;;;;3.59;90.47;97927.03;4885508;29;20060;-87
2021/12/08 09:01:51;;;;;;;6.05;1.27;;;;;;;3.58;90.17;97926.25;4896274;29;20044;-86
2021/12/08 09:04:48;;;;;;;8.57;2.13;;;;;;;3.61;90.42;97917.31;4913266;29;20455;-88
2021/12/08 09:07:21;;;;;;;5.95;1.60;;;;;;;3.61;90.39;97922.78;4910852;29;20052;-89
2021/12/08 09:09:52;;;;;;;20.05;2.92;;;;;;;3.63;90.15;97925.94;4910226;29;20048;-89
2021/12/08 09:12:34;;;;;;;9.77;3.10;;;;;;;3.63;90.23;97925.94;4894496;29;20072;-87
2021/12/08 09:15:07;;;;;;;12.25;2.67;;;;;;;3.64;89.93;97943.94;4908532;29;20381;-88
2021/12/08 09:17:48;;;;;;;3.45;1.58;;;;;;;3.64;89.44;97954.09;4891544;29;20127;-88
2021/12/08 09:20:55;;;;;;;11.63;1.98;;;;;;;3.62;89.62;97950.94;4892263;29;20048;-88
2021/12/08 09:23:41;;;;;;;13.63;2.15;;;;;;;3.63;89.94;97956.03;4916470;29;20040;-87
2021/12/08 09:26:12;;;;;;;15.38;2.35;;;;;;;3.65;89.57;97958.41;4904810;29;20085;-88
2021/12/08 09:28:48;;;;;;;10.52;1.88;;;;;;;3.67;89.65;97953.34;4894158;29;20062;-86
2021/12/08 09:31:30;;;;;;;10.52;2.22;;;;;;;3.66;89.43;97968.19;4911728;29;20047;-86
2021/12/08 09:34:00;;;;;;;;;;;;;;;3.61;89.07;97979.44;4877198;29;20055;-87
2021/12/08 09:36:34;;;;;;;10.57;3.03;;;;;;;3.67;89.24;97983.44;4895734;29;19923;-86
2021/12/08 09:39:10;;;;;;;16.20;4.57;;;;;;;3.69;89.08;97979.19;4892551;29;20044;-86
2021/12/08 09:41:46;;;;;;;14.10;2.00;;;;;;;3.68;89.05;97977.59;4891296;29;20044;-85
2021/12/08 09:44:19;;;;;;;10.85;3.75;;;;;;;3.70;89.13;97979.97;4895404;29;20133;-86
2021/12/08 09:46:48;;;;;;;11.80;3.42;;;;;;;3.74;88.18;97972.59;4907073;29;20032;-86
2021/12/08 09:49:23;;;;;;;12.20;2.30;;;;;;;3.77;87.92;97974.59;4895861;29;20047;-88
2021/12/08 09:51:56;;;;;;;6.47;2.45;;;;;;;3.81;87.85;98002.03;4911145;29;20048;-88
2021/12/08 09:54:23;;;;;;;16.20;2.53;;;;;;;3.81;87.81;97999.31;4869293;29;20502;-89
2021/12/08 09:56:52;;;;;;;9.32;2.13;;;;;;;3.87;87.28;98016.97;4901094;29;20115;-88
2021/12/08 09:59:21;;;;;;;16.73;3.22;;;;;;;3.92;87.50;98008.47;4909300;29;20052;-88
2021/12/08 10:01:51;;;;;;;12.50;3.33;;;;;;;3.91;86.47;97990.47;4894986;29;20436;-90
2021/12/08 10:04:19;;;;;;;9.45;2.55;;;;;;;3.92;85.97;98003.75;4887260;29;20484;-87
2021/12/08 10:06:50;;;;;;;6.95;1.90;;;;;;;3.94;85.36;98023.38;4894999;29;20044;-87
2021/12/08 10:09:19;;;;;;;9.95;2.75;;;;;;;3.98;86.20;98037.09;4893763;29;20044;-86
2021/12/08 10:11:47;;;;;;;19.92;2.70;;;;;;;4.00;86.23;98027.34;4887876;29;20071;-88
2021/12/08 10:14:14;;;;;;;19.42;2.75;;;;;;;4.02;86.38;98043.41;4909925;29;20134;-87
2021/12/08 10:16:41;;;;;;;11.63;2.40;;;;;;;4.02;85.92;98057.91;4905509;29;20824;-88
2021/12/08 10:19:08;;;;;;;13.07;2.80;;;;;;;4.01;86.02;98028.94;4896426;29;20131;-87
2021/12/08 10:21:38;;;;;;;19.25;3.35;;;;;;;4.00;85.71;98049.25;4913183;29;20048;-88
2021/12/08 10:24:27;;;;;;;9.15;2.15;;;;;;;4.02;84.83;98051.63;4895923;29;20052;-87
2021/12/08 10:27:04;;;;;;;13.60;4.47;;;;;;;4.03;85.15;98043.03;4909256;29;20142;-88
2021/12/08 10:29:32;;;;;;;21.65;3.85;;;;;;;4.02;84.58;98046.16;4891481;29;20869;-88
2021/12/08 10:32:03;;;;;;;10.02;2.20;;;;;;;4.05;84.50;98051.66;4878005;29;20052;-88
2021/12/08 10:34:41;;;;;;;13.57;4.53;;;;;;;4.10;84.37;98053.31;4909696;29;20036;-89
2021/12/08 10:37:17;;;;;;;9.98;3.08;;;;;;;4.16;84.63;98055.38;4893514;29;20076;-88
2021/12/08 10:39:47;;;;;;;16.77;3.10;;;;;;;4.21;83.67;98060.53;4895396;29;20127;-88
2021/12/08 10:42:18;;;;;;;24.83;3.00;;;;;;;4.31;83.99;98076.31;4909874;29;20044;-87
2021/12/08 10:45:07;;;;;;;12.68;2.75;;;;;;;4.36;82.98;98066.22;4909285;29;20047;-89
2021/12/08 10:47:39;;;;;;;21.67;6.32;;;;;;;4.47;82.69;98078.13;4890957;29;20492;-87
2021/12/08 10:55:39;;;;;;;5.83;2.13;;;;;;;4.66;81.20;98087.00;4921381;29;20441;-87
2021/12/08 10:58:07;;;;;;;14.88;2.60;;;;;;;4.73;82.19;98094.53;4893650;29;20118;-87
2021/12/08 11:00:40;;;;;;;16.58;3.03;;;;;;;4.80;81.81;98097.38;4883932;29;20048;-89
2021/12/08 11:03:11;;;;;;;14.65;3.72;;;;;;;4.83;80.91;98104.84;4888330;29;20040;-86
2021/12/08 11:05:41;;;;;;;16.85;2.97;;;;;;;4.76;80.05;98107.50;4875602;29;20385;-87
2021/12/08 11:08:13;;;;;;;16.60;3.15;;;;;;;4.78;80.79;98121.63;4908526;29;20044;-85
2021/12/08 11:10:48;;;;;;;12.13;3.05;;;;;;;4.76;80.72;98123.97;4895060;29;20144;-87
2021/12/08 11:13:19;;;;;;;15.02;3.45;;;;;;;4.79;81.41;98117.75;4909700;29;20040;-87
2021/12/08 11:15:47;;;;;;;10.20;3.75;;;;;;;4.80;81.23;98113.81;4878339;29;20049;-87
2021/12/08 11:18:22;;;;;;;20.67;4.40;;;;;;;4.81;81.15;98104.44;4890302;29;20100;-87
2021/12/08 11:20:54;;;;;;;15.02;3.60;;;;;;;4.85;81.78;98138.97;4910345;29;20473;-88
2021/12/08 11:23:39;;;;;;;12.93;3.88;;;;;;;4.82;80.83;98125.19;4891009;29;20040;-88
2021/12/08 11:26:37;;;;;;;11.85;2.88;;;;;;;4.83;80.64;98113.09;4918499;29;20120;-87
2021/12/08 11:29:06;;;;;;;17.70;3.22;;;;;;;4.83;80.95;98108.41;4881858;29;20040;-88
2021/12/08 11:31:38;;;;;;;11.45;3.05;;;;;;;4.82;80.63;98111.50;4893765;29;20048;-86
2021/12/08 11:34:13;;;;;;;11.13;2.20;;;;;;;4.84;81.02;98118.19;4912522;29;20040;-86
2021/12/08 11:36:41;;;;;;;12.23;2.88;;;;;;;4.92;81.45;98133.56;4897768;29;20040;-85
2021/12/08 11:39:15;;;;;;;14.48;2.42;;;;;;;4.98;80.66;98125.81;4910125;29;20051;-85
2021/12/08 11:41:55;;;;;;;14.77;3.17;;;;;;;5.03;79.72;98147.41;4911141;29;20484;-86
2021/12/08 11:44:29;;;;;;;6.30;1.65;;;;;;;5.07;79.96;98133.75;4910471;29;20136;-86
2021/12/08 11:47:06;;;;;;;17.25;2.92;;;;;;;5.01;79.07;98135.25;4898286;29;20445;-85
2021/12/08 11:49:34;;;;;;;13.70;2.60;;;;;;;4.92;79.89;98144.53;4878835;29;20091;-84
2021/12/08 11:52:06;;;;;;;8.43;2.33;;;;;;;4.85;80.19;98154.59;4914436;29;20480;-86
2021/12/08 11:54:48;;;;;;;14.07;2.38;;;;;;;4.74;79.66;98165.41;4898705;29;20140;-85
2021/12/08 11:57:21;;;;;;;9.90;2.95;;;;;;;4.72;80.33;98172.44;4904579;29;20112;-86
2021/12/08 12:00:21;;;;;;;9.48;2.15;;;;;;;4.67;80.02;98161.78;4909933;29;20049;-86
2021/12/08 12:02:56;;;;;;;17.23;2.33;;;;;;;4.66;79.54;98149.25;4907659;29;20064;-86
2021/12/08 12:05:37;;;;;;;15.43;2.60;;;;;;;4.67;79.96;98159.84;4910228;29;20044;-88
2021/12/08 12:08:07;;;;;;;13.25;3.03;;;;;;;4.69;79.86;98168.47;4895430;29;20079;-87
2021/12/08 12:10:39;;;;;;;12.57;2.22;;;;;;;4.73;80.37;98174.81;4907832;29;20088;-88
2021/12/08 12:13:10;;;;;;;10.73;2.30;;;;;;;4.75;79.99;98144.28;4899335;29;20044;-89
2021/12/08 12:15:44;;;;;;;10.63;2.42;;;;;;;4.79;79.77;98172.56;4897545;29;20040;-88
2021/12/08 12:18:14;;;;;;;10.57;2.38;;;;;;;4.81;79.38;98179.25;4906708;29;20040;-87
2021/12/08 12:21:14;;;;;;;11.40;2.78;;;;;;;4.81;78.65;98189.41;4914974;29;20039;-87
2021/12/08 12:23:56;;;;;;;19.48;3.85;;;;;;;4.83;79.05;98200.78;4879528;29;20785;-88
2021/12/08 12:26:22;;;;;;;10.50;2.53;;;;;;;4.80;78.83;98205.06;4913194;29;20079;-88
2021/12/08 12:29:11;;;;;;;11.65;1.88;;;;;;;4.79;77.62;98200.72;4892461;29;20715;-88
2021/12/08 12:31:44;;;;;;;8.88;1.77;;;;;;;4.82;78.19;98189.03;4892256;29;20479;-88
2021/12/08 12:34:35;;;;;;;8.98;1.90;;;;;;;4.85;78.24;98214.91;4905786;29;20050;-88
2021/12/08 12:37:05;;;;;;;15.38;5.70;;;;;;;4.86;78.24;98222.00;4888424;29;20054;-88
2021/12/08 12:39:32;;;;;;;7.95;2.67;;;;;;;4.86;77.85;98231.00;4905809;29;20079;-92
2021/12/08 12:42:13;;;;;;;19.88;3.35;;;;;;;4.87;77.46;98218.09;4898317;29;20492;-92
2021/12/08 12:44:45;;;;;;;13.32;2.38;;;;;;;4.88;77.45;98241.59;4892271;29;20066;-87
2021/12/08 12:47:19;;;;;;;8.93;3.30;;;;;;;4.88;77.44;98220.47;4910202;29;20040;-87
2021/12/08 12:50:09;;;;;;;16.10;2.60;;;;;;;4.91;76.78;98224.41;4904395;29;20477;-87